sensor_id;sensor_type;location;lat;lon;timestamp;P1;durP1;ratioP1;P2;durP2;ratioP2
20480;SDS011;10399;50.754;3.366;2023-03-15T00:01:47;3.90;;;1.15;;
20480;SDS011;10399;50.754;3.366;2023-03-15T00:04:18;6.10;;;1.20;;
20480;SDS011;10399;50.754;3.366;2023-03-15T00:06:49;6.18;;;1.35;;
20480;SDS011;10399;50.754;3.366;2023-03-15T00:09:16;2.42;;;1.52;;
20480;SDS011;10399;50.754;3.366;2023-03-15T00:11:43;3.97;;;1.42;;
20480;SDS011;10399;50.754;3.366;2023-03-15T00:14:10;5.32;;;1.60;;
20480;SDS011;10399;50.754;3.366;2023-03-15T00:16:38;3.42;;;1.25;;
20480;SDS011;10399;50.754;3.366;2023-03-15T00:19:05;5.28;;;1.80;;
20480;SDS011;10399;50.754;3.366;2023-03-15T00:21:32;4.13;;;1.50;;
20480;SDS011;10399;50.754;3.366;2023-03-15T00:23:59;11.50;;;2.03;;
20480;SDS011;10399;50.754;3.366;2023-03-15T00:26:27;4.65;;;1.65;;
20480;SDS011;10399;50.754;3.366;2023-03-15T00:28:54;6.05;;;1.65;;
20480;SDS011;10399;50.754;3.366;2023-03-15T00:31:22;5.75;;;2.00;;
20480;SDS011;10399;50.754;3.366;2023-03-15T00:33:51;7.43;;;2.08;;
20480;SDS011;10399;50.754;3.366;2023-03-15T00:36:22;5.30;;;2.00;;
20480;SDS011;10399;50.754;3.366;2023-03-15T00:38:54;7.88;;;2.08;;
20480;SDS011;10399;50.754;3.366;2023-03-15T00:41:22;4.95;;;2.13;;
20480;SDS011;10399;50.754;3.366;2023-03-15T00:43:50;6.53;;;2.17;;
20480;SDS011;10399;50.754;3.366;2023-03-15T00:46:17;6.28;;;2.20;;
20480;SDS011;10399;50.754;3.366;2023-03-15T00:48:49;3.88;;;2.03;;
20480;SDS011;10399;50.754;3.366;2023-03-15T00:51:21;7.00;;;2.25;;
20480;SDS011;10399;50.754;3.366;2023-03-15T00:53:50;5.75;;;2.38;;
20480;SDS011;10399;50.754;3.366;2023-03-15T00:56:19;7.90;;;2.30;;
20480;SDS011;10399;50.754;3.366;2023-03-15T00:58:48;4.63;;;2.22;;
20480;SDS011;10399;50.754;3.366;2023-03-15T01:01:19;10.93;;;2.13;;
20480;SDS011;10399;50.754;3.366;2023-03-15T01:03:49;6.15;;;2.00;;
20480;SDS011;10399;50.754;3.366;2023-03-15T01:06:17;7.15;;;1.90;;
20480;SDS011;10399;50.754;3.366;2023-03-15T01:08:51;7.22;;;2.10;;
20480;SDS011;10399;50.754;3.366;2023-03-15T01:11:25;7.80;;;2.42;;
20480;SDS011;10399;50.754;3.366;2023-03-15T01:13:54;8.73;;;2.60;;
20480;SDS011;10399;50.754;3.366;2023-03-15T01:16:26;5.75;;;2.45;;
20480;SDS011;10399;50.754;3.366;2023-03-15T01:18:53;5.53;;;1.92;;
20480;SDS011;10399;50.754;3.366;2023-03-15T01:21:21;7.35;;;2.58;;
20480;SDS011;10399;50.754;3.366;2023-03-15T01:23:49;4.93;;;2.13;;
20480;SDS011;10399;50.754;3.366;2023-03-15T01:26:17;9.32;;;2.45;;
20480;SDS011;10399;50.754;3.366;2023-03-15T01:28:46;13.68;;;3.17;;
20480;SDS011;10399;50.754;3.366;2023-03-15T01:31:17;11.60;;;2.72;;
20480;SDS011;10399;50.754;3.366;2023-03-15T01:33:47;10.90;;;2.90;;
20480;SDS011;10399;50.754;3.366;2023-03-15T01:36:18;5.20;;;2.63;;
20480;SDS011;10399;50.754;3.366;2023-03-15T01:38:51;8.45;;;2.75;;
20480;SDS011;10399;50.754;3.366;2023-03-15T01:41:21;7.07;;;2.40;;
20480;SDS011;10399;50.754;3.366;2023-03-15T01:43:50;8.88;;;2.92;;
20480;SDS011;10399;50.754;3.366;2023-03-15T01:51:44;7.05;;;3.05;;
20480;SDS011;10399;50.754;3.366;2023-03-15T01:54:48;6.63;;;2.78;;
20480;SDS011;10399;50.754;3.366;2023-03-15T01:57:28;13.27;;;2.95;;
20480;SDS011;10399;50.754;3.366;2023-03-15T02:00:15;7.00;;;2.67;;
20480;SDS011;10399;50.754;3.366;2023-03-15T02:02:52;8.95;;;2.60;;
20480;SDS011;10399;50.754;3.366;2023-03-15T02:05:26;12.85;;;3.05;;
20480;SDS011;10399;50.754;3.366;2023-03-15T02:07:57;11.65;;;2.72;;
20480;SDS011;10399;50.754;3.366;2023-03-15T02:12:59;12.63;;;2.92;;
20480;SDS011;10399;50.754;3.366;2023-03-15T02:15:27;14.32;;;2.58;;
20480;SDS011;10399;50.754;3.366;2023-03-15T02:17:54;14.40;;;2.90;;
20480;SDS011;10399;50.754;3.366;2023-03-15T02:20:35;9.48;;;2.75;;
20480;SDS011;10399;50.754;3.366;2023-03-15T02:23:04;9.23;;;2.90;;
20480;SDS011;10399;50.754;3.366;2023-03-15T02:28:14;11.32;;;3.17;;
20480;SDS011;10399;50.754;3.366;2023-03-15T02:30:43;8.43;;;3.28;;
20480;SDS011;10399;50.754;3.366;2023-03-15T02:33:24;13.70;;;3.28;;
20480;SDS011;10399;50.754;3.366;2023-03-15T02:36:14;9.73;;;3.17;;
20480;SDS011;10399;50.754;3.366;2023-03-15T02:38:46;19.05;;;3.17;;
20480;SDS011;10399;50.754;3.366;2023-03-15T02:41:15;9.25;;;3.10;;
20480;SDS011;10399;50.754;3.366;2023-03-15T02:43:47;10.90;;;3.28;;
20480;SDS011;10399;50.754;3.366;2023-03-15T02:46:17;10.77;;;3.42;;
20480;SDS011;10399;50.754;3.366;2023-03-15T02:48:44;10.00;;;3.00;;
20480;SDS011;10399;50.754;3.366;2023-03-15T02:51:18;11.25;;;3.13;;
20480;SDS011;10399;50.754;3.366;2023-03-15T02:53:47;14.63;;;3.03;;
20480;SDS011;10399;50.754;3.366;2023-03-15T02:56:14;10.88;;;3.30;;
20480;SDS011;10399;50.754;3.366;2023-03-15T02:58:42;10.60;;;3.05;;
20480;SDS011;10399;50.754;3.366;2023-03-15T03:01:15;9.32;;;3.10;;
20480;SDS011;10399;50.754;3.366;2023-03-15T03:03:44;8.38;;;3.33;;
20480;SDS011;10399;50.754;3.366;2023-03-15T03:06:13;12.45;;;2.92;;
20480;SDS011;10399;50.754;3.366;2023-03-15T03:08:42;10.80;;;3.00;;
20480;SDS011;10399;50.754;3.366;2023-03-15T03:11:13;11.25;;;3.40;;
20480;SDS011;10399;50.754;3.366;2023-03-15T03:13:41;8.65;;;2.90;;
20480;SDS011;10399;50.754;3.366;2023-03-15T03:16:08;10.50;;;2.67;;
20480;SDS011;10399;50.754;3.366;2023-03-15T03:18:35;9.02;;;2.65;;
20480;SDS011;10399;50.754;3.366;2023-03-15T03:21:03;8.05;;;2.80;;
20480;SDS011;10399;50.754;3.366;2023-03-15T03:23:32;12.68;;;3.63;;
20480;SDS011;10399;50.754;3.366;2023-03-15T03:26:02;12.70;;;2.60;;
20480;SDS011;10399;50.754;3.366;2023-03-15T03:28:30;8.68;;;2.83;;
20480;SDS011;10399;50.754;3.366;2023-03-15T03:30:57;9.95;;;2.97;;
20480;SDS011;10399;50.754;3.366;2023-03-15T03:33:24;15.90;;;3.10;;
20480;SDS011;10399;50.754;3.366;2023-03-15T03:35:51;9.05;;;3.13;;
20480;SDS011;10399;50.754;3.366;2023-03-15T03:38:19;6.63;;;2.80;;
20480;SDS011;10399;50.754;3.366;2023-03-15T03:40:46;14.20;;;3.40;;
20480;SDS011;10399;50.754;3.366;2023-03-15T03:43:13;9.15;;;2.90;;
20480;SDS011;10399;50.754;3.366;2023-03-15T03:45:40;8.13;;;2.92;;
20480;SDS011;10399;50.754;3.366;2023-03-15T03:48:07;7.00;;;2.83;;
20480;SDS011;10399;50.754;3.366;2023-03-15T03:50:35;9.77;;;3.45;;
20480;SDS011;10399;50.754;3.366;2023-03-15T03:53:01;9.27;;;2.75;;
20480;SDS011;10399;50.754;3.366;2023-03-15T03:55:28;10.52;;;3.30;;
20480;SDS011;10399;50.754;3.366;2023-03-15T03:57:59;5.93;;;2.28;;
20480;SDS011;10399;50.754;3.366;2023-03-15T04:00:26;6.75;;;2.53;;
20480;SDS011;10399;50.754;3.366;2023-03-15T04:02:53;8.07;;;2.80;;
20480;SDS011;10399;50.754;3.366;2023-03-15T04:05:20;5.75;;;2.65;;
20480;SDS011;10399;50.754;3.366;2023-03-15T04:07:48;6.00;;;2.70;;
20480;SDS011;10399;50.754;3.366;2023-03-15T04:10:15;6.20;;;2.17;;
20480;SDS011;10399;50.754;3.366;2023-03-15T04:12:42;4.57;;;2.47;;
20480;SDS011;10399;50.754;3.366;2023-03-15T04:15:10;6.75;;;2.30;;
20480;SDS011;10399;50.754;3.366;2023-03-15T04:17:38;4.00;;;2.00;;
20480;SDS011;10399;50.754;3.366;2023-03-15T04:20:05;4.68;;;1.65;;
20480;SDS011;10399;50.754;3.366;2023-03-15T04:22:35;3.38;;;1.73;;
20480;SDS011;10399;50.754;3.366;2023-03-15T04:25:02;3.97;;;1.73;;
20480;SDS011;10399;50.754;3.366;2023-03-15T04:27:30;4.07;;;2.13;;
20480;SDS011;10399;50.754;3.366;2023-03-15T04:29:57;3.22;;;1.80;;
20480;SDS011;10399;50.754;3.366;2023-03-15T04:32:24;6.28;;;1.83;;
20480;SDS011;10399;50.754;3.366;2023-03-15T04:34:51;4.93;;;1.98;;
20480;SDS011;10399;50.754;3.366;2023-03-15T04:37:21;3.78;;;1.80;;
20480;SDS011;10399;50.754;3.366;2023-03-15T04:39:48;3.15;;;1.90;;
20480;SDS011;10399;50.754;3.366;2023-03-15T04:42:14;3.00;;;2.05;;
20480;SDS011;10399;50.754;3.366;2023-03-15T04:44:41;3.75;;;1.73;;
20480;SDS011;10399;50.754;3.366;2023-03-15T04:47:08;2.90;;;1.60;;
20480;SDS011;10399;50.754;3.366;2023-03-15T04:49:35;2.90;;;1.65;;
20480;SDS011;10399;50.754;3.366;2023-03-15T04:52:02;2.47;;;1.80;;
20480;SDS011;10399;50.754;3.366;2023-03-15T04:54:29;3.00;;;1.55;;
20480;SDS011;10399;50.754;3.366;2023-03-15T04:56:57;5.93;;;2.10;;
20480;SDS011;10399;50.754;3.366;2023-03-15T04:59:24;3.55;;;1.40;;
20480;SDS011;10399;50.754;3.366;2023-03-15T05:01:51;1.75;;;1.50;;
20480;SDS011;10399;50.754;3.366;2023-03-15T05:04:18;3.17;;;1.60;;
20480;SDS011;10399;50.754;3.366;2023-03-15T05:06:45;3.50;;;1.55;;
20480;SDS011;10399;50.754;3.366;2023-03-15T05:09:12;4.20;;;1.52;;
20480;SDS011;10399;50.754;3.366;2023-03-15T05:11:45;2.95;;;1.20;;
20480;SDS011;10399;50.754;3.366;2023-03-15T05:14:12;1.27;;;0.95;;
20480;SDS011;10399;50.754;3.366;2023-03-15T05:16:39;3.55;;;1.00;;
20480;SDS011;10399;50.754;3.366;2023-03-15T05:19:06;1.70;;;1.35;;
20480;SDS011;10399;50.754;3.366;2023-03-15T05:21:33;2.80;;;1.08;;
20480;SDS011;10399;50.754;3.366;2023-03-15T05:24:00;3.17;;;1.40;;
20480;SDS011;10399;50.754;3.366;2023-03-15T05:26:27;2.05;;;1.00;;
20480;SDS011;10399;50.754;3.366;2023-03-15T05:28:54;3.42;;;1.35;;
20480;SDS011;10399;50.754;3.366;2023-03-15T05:31:21;3.28;;;1.70;;
20480;SDS011;10399;50.754;3.366;2023-03-15T05:33:48;2.13;;;1.20;;
20480;SDS011;10399;50.754;3.366;2023-03-15T05:36:19;4.03;;;1.90;;
20480;SDS011;10399;50.754;3.366;2023-03-15T05:38:48;5.97;;;1.90;;
20480;SDS011;10399;50.754;3.366;2023-03-15T05:41:17;3.33;;;2.17;;
20480;SDS011;10399;50.754;3.366;2023-03-15T05:43:44;3.95;;;1.65;;
20480;SDS011;10399;50.754;3.366;2023-03-15T05:46:11;3.47;;;1.77;;
20480;SDS011;10399;50.754;3.366;2023-03-15T05:48:38;3.65;;;1.50;;
20480;SDS011;10399;50.754;3.366;2023-03-15T05:51:05;2.70;;;1.73;;
20480;SDS011;10399;50.754;3.366;2023-03-15T05:53:32;4.40;;;1.60;;
20480;SDS011;10399;50.754;3.366;2023-03-15T05:55:59;4.75;;;1.67;;
20480;SDS011;10399;50.754;3.366;2023-03-15T05:58:27;1.98;;;1.77;;
20480;SDS011;10399;50.754;3.366;2023-03-15T06:00:54;2.47;;;1.77;;
20480;SDS011;10399;50.754;3.366;2023-03-15T06:03:21;3.00;;;1.88;;
20480;SDS011;10399;50.754;3.366;2023-03-15T06:05:48;3.90;;;2.10;;
20480;SDS011;10399;50.754;3.366;2023-03-15T06:08:16;3.63;;;2.10;;
20480;SDS011;10399;50.754;3.366;2023-03-15T06:10:43;3.40;;;2.22;;
20480;SDS011;10399;50.754;3.366;2023-03-15T06:13:10;5.88;;;3.50;;
20480;SDS011;10399;50.754;3.366;2023-03-15T06:15:37;5.50;;;3.72;;
20480;SDS011;10399;50.754;3.366;2023-03-15T06:18:04;4.30;;;3.00;;
20480;SDS011;10399;50.754;3.366;2023-03-15T06:20:31;6.07;;;3.17;;
20480;SDS011;10399;50.754;3.366;2023-03-15T06:22:58;9.73;;;3.83;;
20480;SDS011;10399;50.754;3.366;2023-03-15T06:25:25;9.25;;;4.10;;
20480;SDS011;10399;50.754;3.366;2023-03-15T06:27:52;6.05;;;3.75;;
20480;SDS011;10399;50.754;3.366;2023-03-15T06:30:19;6.50;;;3.88;;
20480;SDS011;10399;50.754;3.366;2023-03-15T06:32:50;7.05;;;3.72;;
20480;SDS011;10399;50.754;3.366;2023-03-15T06:35:18;4.30;;;3.30;;
20480;SDS011;10399;50.754;3.366;2023-03-15T06:37:46;6.35;;;3.40;;
20480;SDS011;10399;50.754;3.366;2023-03-15T06:40:13;7.03;;;3.75;;
20480;SDS011;10399;50.754;3.366;2023-03-15T06:42:40;6.00;;;3.58;;
20480;SDS011;10399;50.754;3.366;2023-03-15T06:45:08;9.13;;;4.10;;
20480;SDS011;10399;50.754;3.366;2023-03-15T06:47:35;42.30;;;19.00;;
20480;SDS011;10399;50.754;3.366;2023-03-15T06:50:03;27.02;;;12.52;;
20480;SDS011;10399;50.754;3.366;2023-03-15T06:52:30;18.27;;;9.02;;
20480;SDS011;10399;50.754;3.366;2023-03-15T06:54:59;19.98;;;9.73;;
20480;SDS011;10399;50.754;3.366;2023-03-15T06:57:26;26.70;;;11.70;;
20480;SDS011;10399;50.754;3.366;2023-03-15T06:59:53;10.32;;;6.32;;
20480;SDS011;10399;50.754;3.366;2023-03-15T07:02:20;12.50;;;6.75;;
20480;SDS011;10399;50.754;3.366;2023-03-15T07:04:48;26.48;;;12.43;;
20480;SDS011;10399;50.754;3.366;2023-03-15T07:07:15;19.30;;;9.20;;
20480;SDS011;10399;50.754;3.366;2023-03-15T07:09:42;21.67;;;9.88;;
20480;SDS011;10399;50.754;3.366;2023-03-15T07:12:09;39.35;;;14.93;;
20480;SDS011;10399;50.754;3.366;2023-03-15T07:14:37;25.88;;;11.60;;
20480;SDS011;10399;50.754;3.366;2023-03-15T07:17:04;22.15;;;9.80;;
20480;SDS011;10399;50.754;3.366;2023-03-15T07:19:30;21.95;;;10.55;;
20480;SDS011;10399;50.754;3.366;2023-03-15T07:21:57;16.25;;;8.18;;
20480;SDS011;10399;50.754;3.366;2023-03-15T07:24:24;14.93;;;7.80;;
20480;SDS011;10399;50.754;3.366;2023-03-15T07:26:53;11.95;;;7.75;;
20480;SDS011;10399;50.754;3.366;2023-03-15T07:29:22;13.38;;;9.02;;
20480;SDS011;10399;50.754;3.366;2023-03-15T07:31:50;18.85;;;11.27;;
20480;SDS011;10399;50.754;3.366;2023-03-15T07:34:17;14.93;;;10.32;;
20480;SDS011;10399;50.754;3.366;2023-03-15T07:36:45;23.92;;;10.75;;
20480;SDS011;10399;50.754;3.366;2023-03-15T07:39:12;16.55;;;10.55;;
20480;SDS011;10399;50.754;3.366;2023-03-15T07:41:39;17.85;;;8.50;;
20480;SDS011;10399;50.754;3.366;2023-03-15T07:44:06;16.08;;;8.75;;
20480;SDS011;10399;50.754;3.366;2023-03-15T07:46:33;26.67;;;13.63;;
20480;SDS011;10399;50.754;3.366;2023-03-15T07:49:00;23.60;;;12.32;;
20480;SDS011;10399;50.754;3.366;2023-03-15T07:51:28;16.65;;;9.25;;
20480;SDS011;10399;50.754;3.366;2023-03-15T07:53:55;14.40;;;7.97;;
20480;SDS011;10399;50.754;3.366;2023-03-15T07:56:21;17.08;;;9.13;;
20480;SDS011;10399;50.754;3.366;2023-03-15T07:58:48;17.10;;;9.15;;
20480;SDS011;10399;50.754;3.366;2023-03-15T08:01:15;13.60;;;7.95;;
20480;SDS011;10399;50.754;3.366;2023-03-15T08:03:42;12.27;;;6.22;;
20480;SDS011;10399;50.754;3.366;2023-03-15T08:06:09;12.15;;;7.10;;
20480;SDS011;10399;50.754;3.366;2023-03-15T08:08:36;15.70;;;6.97;;
20480;SDS011;10399;50.754;3.366;2023-03-15T08:11:04;14.10;;;5.95;;
20480;SDS011;10399;50.754;3.366;2023-03-15T08:13:31;9.00;;;5.05;;
20480;SDS011;10399;50.754;3.366;2023-03-15T08:15:58;11.15;;;5.72;;
20480;SDS011;10399;50.754;3.366;2023-03-15T08:18:25;11.68;;;5.25;;
20480;SDS011;10399;50.754;3.366;2023-03-15T08:20:54;11.50;;;5.10;;
20480;SDS011;10399;50.754;3.366;2023-03-15T08:23:21;8.63;;;4.30;;
20480;SDS011;10399;50.754;3.366;2023-03-15T08:25:48;10.93;;;4.85;;
20480;SDS011;10399;50.754;3.366;2023-03-15T08:28:15;7.03;;;4.50;;
20480;SDS011;10399;50.754;3.366;2023-03-15T08:30:42;8.50;;;4.68;;
20480;SDS011;10399;50.754;3.366;2023-03-15T08:33:09;5.68;;;4.43;;
20480;SDS011;10399;50.754;3.366;2023-03-15T08:35:38;9.25;;;4.80;;
20480;SDS011;10399;50.754;3.366;2023-03-15T08:38:07;10.15;;;4.68;;
20480;SDS011;10399;50.754;3.366;2023-03-15T08:40:34;12.20;;;4.78;;
20480;SDS011;10399;50.754;3.366;2023-03-15T08:43:04;11.05;;;4.50;;
20480;SDS011;10399;50.754;3.366;2023-03-15T08:45:31;8.77;;;3.90;;
20480;SDS011;10399;50.754;3.366;2023-03-15T08:48:12;7.63;;;3.45;;
20480;SDS011;10399;50.754;3.366;2023-03-15T08:50:39;7.22;;;3.53;;
20480;SDS011;10399;50.754;3.366;2023-03-15T08:53:06;8.95;;;3.83;;
20480;SDS011;10399;50.754;3.366;2023-03-15T08:55:33;7.15;;;3.53;;
20480;SDS011;10399;50.754;3.366;2023-03-15T08:58:02;8.05;;;3.58;;
20480;SDS011;10399;50.754;3.366;2023-03-15T09:00:30;8.18;;;4.32;;
20480;SDS011;10399;50.754;3.366;2023-03-15T09:02:57;6.07;;;4.32;;
20480;SDS011;10399;50.754;3.366;2023-03-15T09:05:24;9.05;;;4.45;;
20480;SDS011;10399;50.754;3.366;2023-03-15T09:07:51;6.95;;;3.80;;
20480;SDS011;10399;50.754;3.366;2023-03-15T09:10:19;11.02;;;4.13;;
20480;SDS011;10399;50.754;3.366;2023-03-15T09:12:48;6.18;;;3.67;;
20480;SDS011;10399;50.754;3.366;2023-03-15T09:15:17;9.00;;;4.15;;
20480;SDS011;10399;50.754;3.366;2023-03-15T09:17:44;9.07;;;4.45;;
20480;SDS011;10399;50.754;3.366;2023-03-15T09:20:13;6.93;;;3.38;;
20480;SDS011;10399;50.754;3.366;2023-03-15T09:22:42;7.82;;;3.47;;
20480;SDS011;10399;50.754;3.366;2023-03-15T09:25:14;9.65;;;3.55;;
20480;SDS011;10399;50.754;3.366;2023-03-15T09:27:41;9.00;;;3.65;;
20480;SDS011;10399;50.754;3.366;2023-03-15T09:30:08;5.53;;;3.53;;
20480;SDS011;10399;50.754;3.366;2023-03-15T09:32:36;9.27;;;3.28;;
20480;SDS011;10399;50.754;3.366;2023-03-15T09:35:03;12.68;;;6.53;;
20480;SDS011;10399;50.754;3.366;2023-03-15T09:37:32;5.85;;;3.55;;
20480;SDS011;10399;50.754;3.366;2023-03-15T09:40:00;11.15;;;5.88;;
20480;SDS011;10399;50.754;3.366;2023-03-15T09:42:30;7.50;;;3.42;;
20480;SDS011;10399;50.754;3.366;2023-03-15T09:48:11;6.93;;;3.38;;
20480;SDS011;10399;50.754;3.366;2023-03-15T09:51:01;7.00;;;4.47;;
20480;SDS011;10399;50.754;3.366;2023-03-15T09:53:46;14.18;;;3.08;;
20480;SDS011;10399;50.754;3.366;2023-03-15T09:56:27;7.45;;;3.13;;
20480;SDS011;10399;50.754;3.366;2023-03-15T09:58:58;8.77;;;2.97;;
20480;SDS011;10399;50.754;3.366;2023-03-15T10:01:31;6.32;;;2.58;;
20480;SDS011;10399;50.754;3.366;2023-03-15T10:07:05;4.82;;;2.83;;
20480;SDS011;10399;50.754;3.366;2023-03-15T10:09:37;6.57;;;2.78;;
20480;SDS011;10399;50.754;3.366;2023-03-15T10:12:14;11.52;;;3.53;;
20480;SDS011;10399;50.754;3.366;2023-03-15T10:20:13;5.28;;;2.40;;
20480;SDS011;10399;50.754;3.366;2023-03-15T10:25:36;7.68;;;2.78;;
20480;SDS011;10399;50.754;3.366;2023-03-15T10:30:48;9.52;;;2.75;;
20480;SDS011;10399;50.754;3.366;2023-03-15T10:33:36;4.05;;;2.08;;
20480;SDS011;10399;50.754;3.366;2023-03-15T10:36:17;6.43;;;2.50;;
20480;SDS011;10399;50.754;3.366;2023-03-15T10:38:49;7.63;;;2.35;;
20480;SDS011;10399;50.754;3.366;2023-03-15T10:44:21;6.03;;;1.88;;
20480;SDS011;10399;50.754;3.366;2023-03-15T10:47:03;6.05;;;1.77;;
20480;SDS011;10399;50.754;3.366;2023-03-15T10:49:48;5.50;;;1.88;;
20480;SDS011;10399;50.754;3.366;2023-03-15T10:52:30;9.32;;;2.40;;
20480;SDS011;10399;50.754;3.366;2023-03-15T10:55:05;2.38;;;1.30;;
20480;SDS011;10399;50.754;3.366;2023-03-15T10:57:33;2.58;;;1.33;;
20480;SDS011;10399;50.754;3.366;2023-03-15T11:03:15;2.88;;;1.60;;
20480;SDS011;10399;50.754;3.366;2023-03-15T11:05:46;8.05;;;1.88;;
20480;SDS011;10399;50.754;3.366;2023-03-15T11:08:16;4.90;;;1.92;;
20480;SDS011;10399;50.754;3.366;2023-03-15T11:11:04;7.18;;;2.10;;
20480;SDS011;10399;50.754;3.366;2023-03-15T11:13:32;3.65;;;1.70;;
20480;SDS011;10399;50.754;3.366;2023-03-15T11:16:05;5.45;;;1.85;;
20480;SDS011;10399;50.754;3.366;2023-03-15T11:18:43;4.82;;;2.08;;
20480;SDS011;10399;50.754;3.366;2023-03-15T11:21:12;4.18;;;1.70;;
20480;SDS011;10399;50.754;3.366;2023-03-15T11:23:42;3.22;;;2.00;;
20480;SDS011;10399;50.754;3.366;2023-03-15T11:26:14;4.28;;;2.00;;
20480;SDS011;10399;50.754;3.366;2023-03-15T11:28:59;9.15;;;2.35;;
20480;SDS011;10399;50.754;3.366;2023-03-15T11:31:30;2.72;;;1.88;;
20480;SDS011;10399;50.754;3.366;2023-03-15T11:36:38;3.50;;;1.70;;
20480;SDS011;10399;50.754;3.366;2023-03-15T11:39:11;6.40;;;2.00;;
20480;SDS011;10399;50.754;3.366;2023-03-15T11:41:46;4.55;;;2.20;;
20480;SDS011;10399;50.754;3.366;2023-03-15T11:47:41;3.97;;;2.58;;
20480;SDS011;10399;50.754;3.366;2023-03-15T11:49:53;5.07;;;2.50;;
20480;SDS011;10399;50.754;3.366;2023-03-15T11:52:22;6.50;;;2.25;;
20480;SDS011;10399;50.754;3.366;2023-03-15T11:54:53;9.57;;;2.88;;
20480;SDS011;10399;50.754;3.366;2023-03-15T12:00:17;5.45;;;1.90;;
20480;SDS011;10399;50.754;3.366;2023-03-15T12:02:55;5.25;;;2.45;;
20480;SDS011;10399;50.754;3.366;2023-03-15T12:05:43;5.82;;;2.58;;
20480;SDS011;10399;50.754;3.366;2023-03-15T12:10:47;6.05;;;2.40;;
20480;SDS011;10399;50.754;3.366;2023-03-15T12:13:17;3.75;;;2.10;;
20480;SDS011;10399;50.754;3.366;2023-03-15T12:15:48;7.65;;;2.35;;
20480;SDS011;10399;50.754;3.366;2023-03-15T12:18:20;2.88;;;2.10;;
20480;SDS011;10399;50.754;3.366;2023-03-15T12:21:37;4.35;;;1.90;;
20480;SDS011;10399;50.754;3.366;2023-03-15T12:24:02;5.28;;;2.40;;
20480;SDS011;10399;50.754;3.366;2023-03-15T12:26:51;6.80;;;2.30;;
20480;SDS011;10399;50.754;3.366;2023-03-15T12:29:29;4.18;;;2.08;;
20480;SDS011;10399;50.754;3.366;2023-03-15T12:55:42;4.72;;;2.17;;
20480;SDS011;10399;50.754;3.366;2023-03-15T12:58:10;4.13;;;1.90;;
20480;SDS011;10399;50.754;3.366;2023-03-15T13:00:39;3.15;;;1.73;;
20480;SDS011;10399;50.754;3.366;2023-03-15T13:03:12;4.65;;;1.95;;
20480;SDS011;10399;50.754;3.366;2023-03-15T13:19:43;4.43;;;1.52;;
20480;SDS011;10399;50.754;3.366;2023-03-15T13:25:05;2.72;;;1.50;;
20480;SDS011;10399;50.754;3.366;2023-03-15T13:30:45;1.80;;;1.30;;
20480;SDS011;10399;50.754;3.366;2023-03-15T13:33:22;3.85;;;1.70;;
20480;SDS011;10399;50.754;3.366;2023-03-15T13:36:03;2.97;;;1.50;;
20480;SDS011;10399;50.754;3.366;2023-03-15T13:43:51;4.18;;;1.70;;
20480;SDS011;10399;50.754;3.366;2023-03-15T13:46:23;3.90;;;1.67;;
20480;SDS011;10399;50.754;3.366;2023-03-15T13:48:53;2.42;;;1.60;;
20480;SDS011;10399;50.754;3.366;2023-03-15T13:51:25;3.40;;;1.88;;
20480;SDS011;10399;50.754;3.366;2023-03-15T13:53:59;5.53;;;1.60;;
20480;SDS011;10399;50.754;3.366;2023-03-15T13:56:50;4.32;;;1.50;;
20480;SDS011;10399;50.754;3.366;2023-03-15T13:59:22;5.03;;;1.35;;
20480;SDS011;10399;50.754;3.366;2023-03-15T14:01:54;2.95;;;1.70;;
20480;SDS011;10399;50.754;3.366;2023-03-15T14:04:22;2.45;;;1.40;;
20480;SDS011;10399;50.754;3.366;2023-03-15T14:07:01;3.70;;;1.60;;
20480;SDS011;10399;50.754;3.366;2023-03-15T14:09:38;2.22;;;1.25;;
20480;SDS011;10399;50.754;3.366;2023-03-15T14:12:14;2.80;;;1.20;;
20480;SDS011;10399;50.754;3.366;2023-03-15T14:14:57;1.95;;;1.38;;
20480;SDS011;10399;50.754;3.366;2023-03-15T14:17:33;2.55;;;1.30;;
20480;SDS011;10399;50.754;3.366;2023-03-15T14:20:07;6.28;;;2.00;;
20480;SDS011;10399;50.754;3.366;2023-03-15T14:22:41;9.18;;;2.65;;
20480;SDS011;10399;50.754;3.366;2023-03-15T14:25:26;1.75;;;1.23;;
20480;SDS011;10399;50.754;3.366;2023-03-15T14:27:53;6.18;;;1.88;;
20480;SDS011;10399;50.754;3.366;2023-03-15T14:30:24;4.15;;;1.77;;
20480;SDS011;10399;50.754;3.366;2023-03-15T14:32:56;4.03;;;1.40;;
20480;SDS011;10399;50.754;3.366;2023-03-15T14:38:07;3.70;;;1.70;;
20480;SDS011;10399;50.754;3.366;2023-03-15T14:40:47;3.30;;;1.50;;
20480;SDS011;10399;50.754;3.366;2023-03-15T14:43:15;3.85;;;1.40;;
20480;SDS011;10399;50.754;3.366;2023-03-15T14:45:43;2.30;;;1.40;;
20480;SDS011;10399;50.754;3.366;2023-03-15T14:48:13;4.88;;;1.48;;
20480;SDS011;10399;50.754;3.366;2023-03-15T14:50:48;3.53;;;1.40;;
20480;SDS011;10399;50.754;3.366;2023-03-15T14:53:16;3.85;;;1.48;;
20480;SDS011;10399;50.754;3.366;2023-03-15T14:55:46;3.63;;;2.35;;
20480;SDS011;10399;50.754;3.366;2023-03-15T14:58:14;9.38;;;2.58;;
20480;SDS011;10399;50.754;3.366;2023-03-15T15:00:50;4.18;;;2.17;;
20480;SDS011;10399;50.754;3.366;2023-03-15T15:03:31;6.55;;;2.40;;
20480;SDS011;10399;50.754;3.366;2023-03-15T15:06:05;4.30;;;1.80;;
20480;SDS011;10399;50.754;3.366;2023-03-15T15:08:35;3.92;;;1.65;;
20480;SDS011;10399;50.754;3.366;2023-03-15T15:11:05;4.97;;;1.50;;
20480;SDS011;10399;50.754;3.366;2023-03-15T15:13:37;5.88;;;1.90;;
20480;SDS011;10399;50.754;3.366;2023-03-15T15:16:04;3.05;;;1.55;;
20480;SDS011;10399;50.754;3.366;2023-03-15T15:18:33;16.10;;;5.95;;
20480;SDS011;10399;50.754;3.366;2023-03-15T15:23:52;4.75;;;1.85;;
20480;SDS011;10399;50.754;3.366;2023-03-15T15:26:25;4.18;;;1.70;;
20480;SDS011;10399;50.754;3.366;2023-03-15T15:28:55;2.80;;;1.60;;
20480;SDS011;10399;50.754;3.366;2023-03-15T15:31:23;3.40;;;1.50;;
20480;SDS011;10399;50.754;3.366;2023-03-15T15:33:51;1.65;;;1.30;;
20480;SDS011;10399;50.754;3.366;2023-03-15T15:38:51;1.85;;;1.27;;
20480;SDS011;10399;50.754;3.366;2023-03-15T15:41:21;3.85;;;1.65;;
20480;SDS011;10399;50.754;3.366;2023-03-15T15:43:57;4.50;;;1.83;;
20480;SDS011;10399;50.754;3.366;2023-03-15T15:46:24;3.83;;;1.40;;
20480;SDS011;10399;50.754;3.366;2023-03-15T15:48:52;2.78;;;1.45;;
20480;SDS011;10399;50.754;3.366;2023-03-15T15:51:30;2.72;;;1.30;;
20480;SDS011;10399;50.754;3.366;2023-03-15T15:54:00;3.03;;;1.30;;
20480;SDS011;10399;50.754;3.366;2023-03-15T15:56:35;3.95;;;1.60;;
20480;SDS011;10399;50.754;3.366;2023-03-15T15:59:10;3.70;;;1.27;;
20480;SDS011;10399;50.754;3.366;2023-03-15T16:01:40;1.52;;;1.35;;
20480;SDS011;10399;50.754;3.366;2023-03-15T16:04:28;4.18;;;1.65;;
20480;SDS011;10399;50.754;3.366;2023-03-15T16:06:56;6.85;;;2.00;;
20480;SDS011;10399;50.754;3.366;2023-03-15T16:09:27;2.58;;;1.52;;
20480;SDS011;10399;50.754;3.366;2023-03-15T16:11:55;2.35;;;1.52;;
20480;SDS011;10399;50.754;3.366;2023-03-15T16:14:22;2.53;;;1.38;;
20480;SDS011;10399;50.754;3.366;2023-03-15T16:16:49;3.85;;;1.50;;
20480;SDS011;10399;50.754;3.366;2023-03-15T16:19:16;5.32;;;1.75;;
20480;SDS011;10399;50.754;3.366;2023-03-15T16:21:44;2.75;;;1.85;;
20480;SDS011;10399;50.754;3.366;2023-03-15T16:24:21;3.83;;;1.63;;
20480;SDS011;10399;50.754;3.366;2023-03-15T16:26:52;2.80;;;1.48;;
20480;SDS011;10399;50.754;3.366;2023-03-15T16:29:35;3.58;;;1.55;;
20480;SDS011;10399;50.754;3.366;2023-03-15T16:32:16;6.55;;;2.35;;
20480;SDS011;10399;50.754;3.366;2023-03-15T16:35:02;4.53;;;2.15;;
20480;SDS011;10399;50.754;3.366;2023-03-15T16:37:30;2.40;;;2.10;;
20480;SDS011;10399;50.754;3.366;2023-03-15T16:40:19;5.60;;;1.65;;
20480;SDS011;10399;50.754;3.366;2023-03-15T16:42:51;5.05;;;1.48;;
20480;SDS011;10399;50.754;3.366;2023-03-15T16:45:19;3.42;;;1.77;;
20480;SDS011;10399;50.754;3.366;2023-03-15T16:47:46;6.40;;;1.92;;